Time;durP1;ratioP1;P1;durP2;ratioP2;P2;SDS_P1;SDS_P2;PMS_P1;PMS_P2;Temp;Humidity;BMP_temperature;BMP_pressure;BME280_temperature;BME280_humidity;BME280_pressure;Samples;Min_cycle;Max_cycle;Signal;HPM_P1;HPM_P2
2022/10/27 00:02:34;;;;;;;;;;;;;;;17.39;99.12;101208.16;7385742;19;19918;-62
2022/10/27 00:05:01;;;;;;;;;;;;;;;17.39;99.51;101216.13;7385446;19;19919;-62
2022/10/27 00:07:31;;;;;;;;;;;;;;;17.39;99.51;101206.31;7383536;19;19922;-63
2022/10/27 00:09:58;;;;;;;;;;;;;;;17.39;99.54;101206.31;7386071;19;19927;-62
2022/10/27 00:12:25;;;;;;;;;;;;;;;17.40;99.89;101205.31;7383124;19;20277;-61
2022/10/27 00:14:51;;;;;;;;;;;;;;;17.42;99.87;101205.94;7384200;19;20506;-61
2022/10/27 00:17:18;;;;;;;;;;;;;;;17.42;99.76;101213.13;7386355;19;19946;-61
2022/10/27 00:19:45;;;;;;;;;;;;;;;17.42;100.00;101211.25;7387240;19;19958;-61
2022/10/27 00:22:12;;;;;;;;;;;;;;;17.43;99.84;101215.56;7388528;19;20251;-61
2022/10/27 00:24:39;;;;;;;;;;;;;;;17.44;99.78;101206.56;7386769;19;19938;-62
2022/10/27 00:27:07;;;;;;;;;;;;;;;17.42;99.69;101215.78;7381568;19;19960;-61
2022/10/27 00:29:34;;;;;;;;;;;;;;;17.41;99.47;101214.13;7380696;19;19925;-62
2022/10/27 00:32:00;;;;;;;;;;;;;;;17.41;99.57;101214.13;7384940;19;19919;-62
2022/10/27 00:34:27;;;;;;;;;;;;;;;17.43;100.00;101218.22;7384259;19;19946;-61
2022/10/27 00:36:54;;;;;;;;;;;;;;;17.45;100.00;101208.22;7384341;19;20358;-62
2022/10/27 00:39:22;;;;;;;;;;;;;;;17.47;100.00;101210.72;7384024;19;20591;-62
2022/10/27 00:41:48;;;;;;;;;;;;;;;17.45;99.87;101199.41;7385544;19;19922;-61
2022/10/27 00:44:34;;;;;;;;;;;;;;;17.44;99.93;101201.25;7386253;19;19918;-62
2022/10/27 00:47:05;;;;;;;;;;;;;;;17.43;99.69;101194.28;7384016;19;19956;-62
2022/10/27 00:49:35;;;;;;;;;;;;;;;17.44;99.93;101189.78;7384099;19;20319;-60
2022/10/27 00:52:04;;;;;;;;;;;;;;;17.44;99.78;101189.78;7384440;19;19926;-61
2022/10/27 00:54:34;;;;;;;;;;;;;;;17.43;99.71;101188.97;7383471;19;19926;-60
2022/10/27 00:57:01;;;;;;;;;;;;;;;17.42;99.69;101184.63;7381372;19;19925;-61
2022/10/27 00:59:27;;;;;;;;;;;;;;;17.41;99.92;101177.69;7384127;19;20251;-61
2022/10/27 01:01:57;;;;;;;;;;;;;;;17.42;99.92;101187.31;7390246;19;19926;-60
2022/10/27 01:04:56;;;;;;;;;;;;;;;17.43;99.82;101188.97;7385969;19;19982;-61
2022/10/27 01:07:23;;;;;;;;;;;;;;;17.44;99.81;101192.44;7391904;19;20561;-62
2022/10/27 01:09:50;;;;;;;;;;;;;;;17.42;99.56;101189.97;7393082;19;19923;-60
2022/10/27 01:12:17;;;;;;;;;;;;;;;17.41;99.56;101185.69;7388161;19;19947;-62
2022/10/27 01:14:44;;;;;;;;;;;;;;;17.40;99.41;101184.03;7390263;19;19950;-63
2022/10/27 01:17:21;;;;;;;;;;;;;;;17.40;99.74;101185.84;7391915;19;19919;-62
2022/10/27 01:19:53;;;;;;;;;;;;;;;17.40;100.00;101181.38;7389271;19;20250;-62
2022/10/27 01:22:35;;;;;;;;;;;;;;;17.41;99.71;101184.84;7392533;19;19947;-62
2022/10/27 01:25:17;;;;;;;;;;;;;;;17.39;99.97;101195.66;7388085;19;19943;-61
2022/10/27 01:27:43;;;;;;;;;;;;;;;17.40;100.00;101189.34;7388409;19;19958;-61
2022/10/27 01:30:29;;;;;;;;;;;;;;;17.39;100.00;101190.34;7392004;19;20713;-62
2022/10/27 01:33:05;;;;;;;;;;;;;;;17.41;100.00;101188.34;7391814;19;19922;-61
2022/10/27 01:35:36;;;;;;;;;;;;;;;17.43;100.00;101191.63;7391573;19;19919;-62
2022/10/27 01:38:12;;;;;;;;;;;;;;;17.44;100.00;101187.13;7390140;19;19939;-61
2022/10/27 01:40:38;;;;;;;;;;;;;;;17.43;100.00;101185.47;7388059;19;19951;-62
2022/10/27 01:43:07;;;;;;;;;;;;;;;17.41;100.00;101185.69;7388117;19;20344;-61
2022/10/27 01:45:36;;;;;;;;;;;;;;;17.42;100.00;101184.63;7389471;19;19938;-61
2022/10/27 01:48:04;;;;;;;;;;;;;;;17.43;100.00;101188.13;7384501;19;20077;-61
2022/10/27 01:50:39;;;;;;;;;;;;;;;17.43;100.00;101180.97;7388476;19;19922;-62
2022/10/27 01:53:26;;;;;;;;;;;;;;;17.42;100.00;101170.53;7389697;19;19921;-63
2022/10/27 01:55:56;;;;;;;;;;;;;;;17.42;100.00;101167.88;7391659;19;20272;-61
2022/10/27 01:58:30;;;;;;;;;;;;;;;17.42;100.00;101168.69;7386223;19;19915;-60
2022/10/27 02:01:06;;;;;;;;;;;;;;;17.40;100.00;101160.06;7391012;19;19947;-61
2022/10/27 02:03:42;;;;;;;;;;;;;;;17.41;100.00;101156.41;7390984;19;19966;-61
2022/10/27 02:06:13;;;;;;;;;;;;;;;17.40;100.00;101164.56;7387975;19;20001;-61
2022/10/27 02:08:43;;;;;;;;;;;;;;;17.38;100.00;101156.78;7388291;19;19925;-61
2022/10/27 02:11:11;;;;;;;;;;;;;;;17.38;100.00;101146.13;7388190;19;20263;-61
2022/10/27 02:13:40;;;;;;;;;;;;;;;17.37;100.00;101141.03;7387263;19;20082;-61
2022/10/27 02:16:08;;;;;;;;;;;;;;;17.37;100.00;101143.69;7388860;19;19925;-61
2022/10/27 02:18:51;;;;;;;;;;;;;;;17.38;100.00;101140.81;7387812;19;19939;-62
2022/10/27 02:21:36;;;;;;;;;;;;;;;17.40;100.00;101138.78;7387823;19;20415;-61
2022/10/27 02:24:04;;;;;;;;;;;;;;;17.41;100.00;101128.97;7388949;19;19915;-61
2022/10/27 02:26:37;;;;;;;;;;;;;;;17.40;100.00;101124.66;7385537;19;19922;-61
2022/10/27 02:29:07;;;;;;;;;;;;;;;17.38;100.00;101129.34;7388605;19;20618;-61
2022/10/27 02:31:42;;;;;;;;;;;;;;;17.35;100.00;101121.75;7387546;19;19935;-62
2022/10/27 02:34:10;;;;;;;;;;;;;;;17.36;100.00;101118.09;7390249;19;19926;-60
2022/10/27 02:36:37;;;;;;;;;;;;;;;17.35;100.00;101114.59;7387243;19;20346;-61
2022/10/27 02:39:04;;;;;;;;;;;;;;;17.34;100.00;101106.78;7386805;19;19999;-61
2022/10/27 02:41:31;;;;;;;;;;;;;;;17.31;100.00;101105.34;7385135;19;19946;-60
2022/10/27 02:44:00;;;;;;;;;;;;;;;17.31;100.00;101109.84;7387561;19;19950;-62
2022/10/27 02:46:27;;;;;;;;;;;;;;;17.30;100.00;101106.38;7383939;19;19919;-61
2022/10/27 02:48:54;;;;;;;;;;;;;;;17.31;100.00;101102.69;7387667;19;19990;-61
2022/10/27 02:51:24;;;;;;;;;;;;;;;17.32;100.00;101106.97;7387047;19;19918;-60
2022/10/27 02:53:57;;;;;;;;;;;;;;;17.32;100.00;101104.31;7388178;19;20363;-61
2022/10/27 02:56:24;;;;;;;;;;;;;;;17.31;100.00;101094.72;7383618;19;19922;-61
2022/10/27 02:58:51;;;;;;;;;;;;;;;17.31;100.00;101097.38;7386397;19;20006;-62
2022/10/27 03:01:18;;;;;;;;;;;;;;;17.30;100.00;101090.41;7384111;19;19958;-62
2022/10/27 03:03:46;;;;;;;;;;;;;;;17.31;100.00;101088.56;7233371;19;3025766;-61
2022/10/27 03:06:13;;;;;;;;;;;;;;;17.31;100.00;101088.56;7389054;19;19923;-63
2022/10/27 03:08:40;;;;;;;;;;;;;;;17.29;100.00;101083.44;7387427;19;19935;-60
2022/10/27 03:11:07;;;;;;;;;;;;;;;17.31;100.00;101086.72;7388482;19;19978;-61
2022/10/27 03:13:34;;;;;;;;;;;;;;;17.31;100.00;101084.06;7382429;19;20314;-61
2022/10/27 03:16:01;;;;;;;;;;;;;;;17.32;100.00;101083.03;7389822;19;20190;-62
2022/10/27 03:18:29;;;;;;;;;;;;;;;17.30;100.00;101079.75;7388347;19;20321;-62
2022/10/27 03:20:56;;;;;;;;;;;;;;;17.31;100.00;101072.59;7389613;19;19922;-62
2022/10/27 03:23:22;;;;;;;;;;;;;;;17.32;100.00;101063.63;7385005;19;19923;-61
2022/10/27 03:25:49;;;;;;;;;;;;;;;17.31;100.00;101065.44;7388657;19;19918;-62
2022/10/27 03:28:17;;;;;;;;;;;;;;;17.29;100.00;101059.50;7383175;19;19927;-62
2022/10/27 03:30:44;;;;;;;;;;;;;;;17.29;100.00;101054.16;7387489;19;19914;-61
2022/10/27 03:33:11;;;;;;;;;;;;;;;17.31;100.00;101056.66;7389019;19;20336;-62
2022/10/27 03:35:38;;;;;;;;;;;;;;;17.32;100.00;101047.66;7385515;19;19935;-61
2022/10/27 03:38:05;;;;;;;;;;;;;;;17.33;100.00;101042.13;7384852;19;19922;-61
2022/10/27 03:40:32;;;;;;;;;;;;;;;17.34;100.00;101046.44;7388042;19;20605;-61
2022/10/27 03:42:59;;;;;;;;;;;;;;;17.33;100.00;101041.28;7384816;19;19919;-62
2022/10/27 03:45:26;;;;;;;;;;;;;;;17.32;100.00;101048.44;7386025;19;19914;-62
2022/10/27 03:48:00;;;;;;;;;;;;;;;17.32;100.00;101043.13;7385951;19;19946;-60
2022/10/27 03:50:27;;;;;;;;;;;;;;;17.32;100.00;101043.13;7387232;19;20588;-61
2022/10/27 03:52:54;;;;;;;;;;;;;;;17.30;100.00;101031.06;7386593;19;19918;-62
2022/10/27 03:55:22;;;;;;;;;;;;;;;17.32;100.00;101029.03;7384907;19;19974;-61
2022/10/27 03:57:49;;;;;;;;;;;;;;;17.31;100.00;101030.88;7383371;19;19919;-61
2022/10/27 04:00:16;;;;;;;;;;;;;;;17.29;100.00;101030.22;7384665;19;19964;-63
2022/10/27 04:02:43;;;;;;;;;;;;;;;17.30;100.00;101025.72;7387164;19;19915;-61
2022/10/27 04:05:10;;;;;;;;;;;;;;;17.32;100.00;101021.06;7384367;19;19931;-62
2022/10/27 04:07:37;;;;;;;;;;;;;;;17.32;100.00;101013.88;7385681;19;19923;-60
2022/10/27 04:10:10;;;;;;;;;;;;;;;17.33;100.00;101015.53;7388379;19;19997;-62
2022/10/27 04:12:37;;;;;;;;;;;;;;;17.35;100.00;101018.81;7384119;19;19929;-62
2022/10/27 04:15:04;;;;;;;;;;;;;;;17.36;100.00;101009.00;7385532;19;19923;-62
2022/10/27 04:17:31;;;;;;;;;;;;;;;17.35;100.00;101002.03;7385140;19;19925;-61
2022/10/27 04:19:58;;;;;;;;;;;;;;;17.35;100.00;101007.34;7386648;19;19922;-61
2022/10/27 04:22:25;;;;;;;;;;;;;;;17.34;100.00;101003.06;7387363;19;20221;-61
2022/10/27 04:24:52;;;;;;;;;;;;;;;17.35;100.00;101002.03;7387151;19;19929;-61
2022/10/27 04:27:19;;;;;;;;;;;;;;;17.38;100.00;100993.66;7380889;19;20010;-60
2022/10/27 04:29:46;;;;;;;;;;;;;;;17.37;99.85;100992.84;7385460;19;20264;-61
2022/10/27 04:32:16;;;;;;;;;;;;;;;17.36;99.64;100988.56;7387715;19;19919;-61
2022/10/27 04:34:43;;;;;;;;;;;;;;;17.36;99.83;100974.44;7385080;19;19941;-62
2022/10/27 04:37:10;;;;;;;;;;;;;;;17.33;99.14;100970.31;7383012;19;19922;-61
2022/10/27 04:39:37;;;;;;;;;;;;;;;17.31;99.64;100975.00;7384321;19;20396;-62
2022/10/27 04:42:05;;;;;;;;;;;;;;;17.31;99.51;100969.69;7382564;19;20045;-61
2022/10/27 04:44:43;;;;;;;;;;;;;;;17.33;99.48;100972.97;7384812;19;19918;-61
2022/10/27 04:47:10;;;;;;;;;;;;;;;17.34;99.03;100982.59;7384398;19;21615;-61
2022/10/27 04:49:37;;;;;;;;;;;;;;;17.34;99.08;100982.59;7385945;19;20233;-61
2022/10/27 04:52:05;;;;;;;;;;;;;;;17.34;99.25;100984.44;7386139;19;19947;-61
2022/10/27 04:54:41;;;;;;;;;;;;;;;17.32;99.26;100981.16;7387069;19;20441;-60
2022/10/27 04:57:08;;;;;;;;;;;;;;;17.31;99.27;100977.66;7382592;19;19978;-60
2022/10/27 04:59:35;;;;;;;;;;;;;;;17.33;99.37;100977.44;7384005;19;20433;-61
2022/10/27 05:02:02;;;;;;;;;;;;;;;17.33;99.22;100977.44;7387299;19;19940;-62
2022/10/27 05:04:29;;;;;;;;;;;;;;;17.32;99.09;100968.66;7384787;19;19942;-60
2022/10/27 05:06:56;;;;;;;;;;;;;;;17.32;98.96;100959.88;7385159;19;20283;-61
2022/10/27 05:09:22;;;;;;;;;;;;;;;17.32;98.89;100952.69;7383185;19;20710;-62
2022/10/27 05:11:50;;;;;;;;;;;;;;;17.31;98.90;100950.25;7381871;19;19919;-61
2022/10/27 05:14:17;;;;;;;;;;;;;;;17.32;99.09;100950.03;7384950;19;19919;-62
2022/10/27 05:16:44;;;;;;;;;;;;;;;17.34;99.35;100949.84;7383069;19;19929;-61
2022/10/27 05:19:11;;;;;;;;;;;;;;;17.34;99.05;100948.00;7384061;19;19987;-61
2022/10/27 05:21:38;;;;;;;;;;;;;;;17.33;98.87;100932.22;7383595;19;19922;-62
2022/10/27 05:24:05;;;;;;;;;;;;;;;17.32;98.81;100936.72;7381849;19;20269;-61
2022/10/27 05:26:32;;;;;;;;;;;;;;;17.30;98.92;100930.81;7382835;19;20832;-62
2022/10/27 05:29:03;;;;;;;;;;;;;;;17.31;99.13;100929.78;7382875;19;20616;-61
2022/10/27 05:31:30;;;;;;;;;;;;;;;17.33;99.12;100925.09;7384355;19;19969;-61
2022/10/27 05:33:57;;;;;;;;;;;;;;;17.36;99.01;100922.03;7384680;19;19938;-62
2022/10/27 05:36:25;;;;;;;;;;;;;;;17.37;98.89;100912.22;7383459;19;19929;-61
2022/10/27 05:38:53;;;;;;;;;;;;;;;17.37;98.91;100907.69;7384404;19;19927;-61
2022/10/27 05:41:20;;;;;;;;;;;;;;;17.36;98.63;100900.75;7383008;19;20167;-61
2022/10/27 05:43:47;;;;;;;;;;;;;;;17.35;98.41;100904.44;7381252;19;20540;-62
2022/10/27 05:46:14;;;;;;;;;;;;;;;17.37;98.35;100902.38;7387457;19;19939;-62
2022/10/27 05:48:41;;;;;;;;;;;;;;;17.40;98.28;100887.88;7391709;19;19918;-61
2022/10/27 05:51:08;;;;;;;;;;;;;;;17.39;98.45;100886.25;7389782;19;20252;-61
2022/10/27 05:53:35;;;;;;;;;;;;;;;17.39;98.04;100868.44;7390311;19;19926;-60
2022/10/27 05:56:02;;;;;;;;;;;;;;;17.38;97.65;100861.47;7389765;19;19946;-60
2022/10/27 05:58:29;;;;;;;;;;;;;;;17.41;97.52;100870.91;7388419;19;20056;-61
2022/10/27 06:00:57;;;;;;;;;;;;;;;17.40;97.40;100872.75;7391438;19;19922;-61
2022/10/27 06:03:25;;;;;;;;;;;;;;;17.42;97.42;100883.19;7390609;19;19921;-59
2022/10/27 06:05:52;;;;;;;;;;;;;;;17.43;97.65;100877.66;7391565;19;19922;-62
2022/10/27 06:08:19;;;;;;;;;;;;;;;17.45;97.10;100874.81;7388785;19;19990;-62
2022/10/27 06:10:46;;;;;;;;;;;;;;;17.46;96.73;100873.81;7390904;19;19930;-62
2022/10/27 06:13:13;;;;;;;;;;;;;;;17.45;97.03;100870.31;7385764;19;19926;-61
2022/10/27 06:15:41;;;;;;;;;;;;;;;17.45;96.66;100883.63;7388862;19;19947;-62
2022/10/27 06:18:28;;;;;;;;;;;;;;;17.46;96.94;100890.59;7388376;19;19931;-62
2022/10/27 06:20:55;;;;;;;;;;;;;;;17.48;97.26;100911.66;7391152;19;19923;-62
2022/10/27 06:23:22;;;;;;;;;;;;;;;17.52;97.17;100916.41;7390393;19;19915;-61
2022/10/27 06:25:50;;;;;;;;;;;;;;;17.53;97.03;100933.19;7390954;19;19982;-62
2022/10/27 06:28:21;;;;;;;;;;;;;;;17.53;96.98;100931.34;7385561;19;20323;-62
2022/10/27 06:30:49;;;;;;;;;;;;;;;17.56;96.78;100934.66;7391230;19;19922;-61
2022/10/27 06:33:15;;;;;;;;;;;;;;;17.56;96.97;100927.50;7389900;19;19943;-62
2022/10/27 06:35:43;;;;;;;;;;;;;;;17.57;96.79;100930.97;7389201;19;20372;-61
2022/10/27 06:38:15;;;;;;;;;;;;;;;17.57;96.66;100926.47;7389244;19;19947;-61
2022/10/27 06:40:43;;;;;;;;;;;;;;;17.59;96.59;100942.22;7387031;19;19937;-59
2022/10/27 06:43:11;;;;;;;;;;;;;;;17.60;96.76;100930.59;7386097;19;19923;-61
2022/10/27 06:45:40;;;;;;;;;;;;;;;17.59;96.77;100928.91;7388052;19;20272;-62
2022/10/27 06:48:09;;;;;;;;;;;;;;;17.57;96.45;100921.16;7387340;19;20323;-61
2022/10/27 06:50:36;;;;;;;;;;;;;;;17.58;96.53;100922.78;7390236;19;19986;-61
2022/10/27 06:53:03;;;;;;;;;;;;;;;17.57;96.72;100909.69;7389526;19;19910;-61
2022/10/27 06:55:31;;;;;;;;;;;;;;;17.59;96.86;100912.94;7385728;19;20371;-61
2022/10/27 06:57:57;;;;;;;;;;;;;;;17.60;96.67;100911.97;7382333;19;20297;-62
2022/10/27 07:00:24;;;;;;;;;;;;;;;17.61;96.80;100897.66;7387244;19;19919;-61
2022/10/27 07:02:51;;;;;;;;;;;;;;;17.61;96.21;100895.81;7388143;19;19925;-61
2022/10/27 07:05:18;;;;;;;;;;;;;;;17.60;96.16;100880.88;7386484;19;19910;-63
2022/10/27 07:07:46;;;;;;;;;;;;;;;17.61;96.55;100877.19;7387884;19;19929;-62
2022/10/27 07:10:13;;;;;;;;;;;;;;;17.63;96.71;100874.31;7389833;19;20013;-62
2022/10/27 07:12:50;;;;;;;;;;;;;;;17.67;96.59;100863.09;7385573;19;20365;-62
2022/10/27 07:15:17;;;;;;;;;;;;;;;17.70;96.40;100845.91;7389303;19;19923;-62
2022/10/27 07:17:44;;;;;;;;;;;;;;;17.72;96.27;100842.03;7386512;19;19945;-62
2022/10/27 07:20:11;;;;;;;;;;;;;;;17.73;96.28;100850.81;7388238;19;19942;-63
2022/10/27 07:22:41;;;;;;;;;;;;;;;17.75;96.07;100854.94;7388602;19;20288;-61
2022/10/27 07:25:08;;;;;;;;;;;;;;;17.78;95.90;100856.34;7389318;19;19923;-61
2022/10/27 07:27:35;;;;;;;;;;;;;;;17.80;95.64;100851.66;7382692;19;19926;-61
2022/10/27 07:30:02;;;;;;;;;;;;;;;17.83;95.62;100837.94;7387305;19;19938;-63
2022/10/27 07:32:29;;;;;;;;;;;;;;;17.86;95.21;100840.22;7389623;19;19923;-62
2022/10/27 07:34:56;;;;;;;;;;;;;;;17.88;94.80;100848.81;7387952;19;19918;-61
2022/10/27 07:37:23;;;;;;;;;;;;;;;17.89;94.34;100839.81;7386722;19;19951;-61
2022/10/27 07:39:50;;;;;;;;;;;;;;;17.92;94.00;100839.44;7385878;19;19927;-61
2022/10/27 07:42:17;;;;;;;;;;;;;;;17.93;94.18;100839.22;7380829;19;19954;-60
2022/10/27 07:44:44;;;;;;;;;;;;;;;17.98;94.82;100846.59;7387477;19;19926;-61
2022/10/27 07:47:11;;;;;;;;;;;;;;;18.02;94.67;100855.84;7386845;19;19970;-61
2022/10/27 07:49:38;;;;;;;;;;;;;;;18.02;94.19;100857.69;7386028;19;19923;-61
2022/10/27 07:52:05;;;;;;;;;;;;;;;18.01;93.97;100854.19;7388259;19;20360;-61
2022/10/27 07:54:33;;;;;;;;;;;;;;;18.05;94.10;100843.97;7386314;19;19943;-60
2022/10/27 07:57:00;;;;;;;;;;;;;;;18.15;97.06;100865.69;7375326;19;19930;-61
2022/10/27 07:59:27;;;;;;;;;;;;;;;18.23;98.24;100846.88;7383653;19;19926;-61
2022/10/27 08:01:54;;;;;;;;;;;;;;;18.25;98.28;100869.63;7387214;19;20265;-61
2022/10/27 08:04:21;;;;;;;;;;;;;;;18.24;96.92;100865.31;7384377;19;20362;-61
2022/10/27 08:06:48;;;;;;;;;;;;;;;18.25;96.14;100872.28;7386909;19;20317;-62
2022/10/27 08:09:15;;;;;;;;;;;;;;;18.25;96.16;100853.63;7385726;19;20424;-61
2022/10/27 08:11:45;;;;;;;;;;;;;;;18.23;94.57;100869.03;7384623;19;19926;-61
2022/10/27 08:14:12;;;;;;;;;;;;;;;18.25;94.92;100866.13;7387664;19;19932;-64
2022/10/27 08:16:39;;;;;;;;;;;;;;;18.27;95.03;100864.94;7383502;19;20619;-63
2022/10/27 08:19:06;;;;;;;;;;;;;;;18.30;94.88;100874.34;7385315;19;19927;-61
2022/10/27 08:21:33;;;;;;;;;;;;;;;18.32;94.78;100866.97;7386904;19;19997;-61
2022/10/27 08:24:00;;;;;;;;;;;;;;;18.35;94.26;100862.06;7387883;19;19918;-60
2022/10/27 08:26:28;;;;;;;;;;;;;;;18.38;93.92;100858.19;7381881;19;19964;-62
2022/10/27 08:28:55;;;;;;;;;;;;;;;18.39;93.48;100862.47;7385650;19;20232;-61
2022/10/27 08:31:23;;;;;;;;;;;;;;;18.40;93.25;100845.47;7385553;19;19914;-61
2022/10/27 08:33:50;;;;;;;;;;;;;;;18.43;93.36;100861.06;7387903;19;20388;-63
2022/10/27 08:36:16;;;;;;;;;;;;;;;18.46;93.24;100875.81;7385873;19;20684;-62
2022/10/27 08:38:44;;;;;;;;;;;;;;;18.45;92.72;100872.31;7385886;19;19931;-62
2022/10/27 08:41:19;;;;;;;;;;;;;;;18.47;92.38;100874.78;7384276;19;19923;-62
2022/10/27 08:43:53;;;;;;;;;;;;;;;18.50;92.37;100882.38;7385489;19;19915;-63
2022/10/27 08:46:25;;;;;;;;;;;;;;;18.51;92.08;100884.00;7385443;19;19906;-61
2022/10/27 08:48:58;;;;;;;;;;;;;;;18.53;92.33;100887.31;7386696;19;20360;-62
2022/10/27 08:51:26;;;;;;;;;;;;;;;18.51;92.37;100878.69;7386749;19;20659;-62
2022/10/27 08:53:53;;;;;;;;;;;;;;;18.52;91.97;100891.00;7387295;19;19922;-62
2022/10/27 08:56:22;;;;;;;;;;;;;;;18.55;92.52;100886.09;7383215;19;19914;-61
2022/10/27 08:58:49;;;;;;;;;;;;;;;18.60;92.31;100885.47;7384030;19;19947;-62
2022/10/27 09:01:23;;;;;;;;;;;;;;;18.62;92.26;100880.78;7381957;19;19930;-61
2022/10/27 09:04:01;;;;;;;;;;;;;;;18.65;92.54;100877.69;7386121;19;19966;-62
2022/10/27 09:06:35;;;;;;;;;;;;;;;18.65;91.92;100883.03;7379389;19;19958;-62
2022/10/27 09:09:10;;;;;;;;;;;;;;;18.67;91.52;100884.47;7379979;19;20345;-61
2022/10/27 09:11:46;;;;;;;;;;;;;;;18.69;91.10;100900.28;7380929;19;19943;-61
2022/10/27 09:14:28;;;;;;;;;;;;;;;18.70;91.31;100894.72;7385616;19;19926;-61
2022/10/27 09:16:54;;;;;;;;;;;;;;;18.74;91.08;100889.81;7380883;19;19931;-61
2022/10/27 09:19:23;;;;;;;;;;;;;;;18.76;91.21;100906.41;7383748;19;19926;-61
2022/10/27 09:21:50;;;;;;;;;;;;;;;18.78;90.66;100904.38;7388558;19;19926;-62
2022/10/27 09:24:19;;;;;;;;;;;;;;;18.82;90.99;100913.59;7392660;19;20002;-61
2022/10/27 09:26:47;;;;;;;;;;;;;;;18.85;90.75;100910.53;7389361;19;19922;-59
2022/10/27 09:29:18;;;;;;;;;;;;;;;18.86;90.65;100920.16;7391535;19;20299;-59
2022/10/27 09:31:50;;;;;;;;;;;;;;;18.90;90.85;100920.56;7392439;19;19918;-61
2022/10/27 09:34:36;;;;;;;;;;;;;;;18.97;91.48;100922.22;7388656;19;19938;-61
2022/10/27 09:37:14;;;;;;;;;;;;;;;19.01;91.22;100912.78;7388562;19;20536;-60
2022/10/27 09:39:51;;;;;;;;;;;;;;;19.07;90.73;100917.31;7390151;19;19938;-61
2022/10/27 09:42:21;;;;;;;;;;;;;;;19.13;90.52;100913.00;7390309;19;19927;-62
2022/10/27 09:44:56;;;;;;;;;;;;;;;19.20;90.92;100916.44;7390228;19;19922;-61
2022/10/27 09:47:24;;;;;;;;;;;;;;;19.21;90.31;100902.91;7389374;19;19922;-59
2022/10/27 09:50:24;;;;;;;;;;;;;;;19.22;89.80;100917.06;7385532;19;20788;-61
2022/10/27 09:52:51;;;;;;;;;;;;;;;19.29;89.48;100917.06;7389755;19;19931;-61
2022/10/27 09:55:18;;;;;;;;;;;;;;;19.34;90.29;100912.75;7389993;19;19935;-61
2022/10/27 09:57:46;;;;;;;;;;;;;;;19.37;89.83;100914.19;7385006;19;19923;-62
2022/10/27 10:00:14;;;;;;;;;;;;;;;19.38;89.41;100905.97;7389205;19;19918;-61
2022/10/27 10:03:03;;;;;;;;;;;;;;;19.41;88.96;100896.72;7390865;19;19942;-62
2022/10/27 10:05:35;;;;;;;;;;;;;;;19.44;89.04;100904.31;7385651;19;19915;-61
2022/10/27 10:08:22;;;;;;;;;;;;;;;19.46;88.74;100902.28;7390095;19;19919;-61
2022/10/27 10:10:54;;;;;;;;;;;;;;;19.49;88.04;100913.38;7388772;19;19923;-61
2022/10/27 10:13:21;;;;;;;;;;;;;;;19.54;87.14;100918.91;7387674;19;20276;-62
2022/10/27 10:16:02;;;;;;;;;;;;;;;19.57;87.23;100915.81;7388170;19;20347;-61
2022/10/27 10:18:30;;;;;;;;;;;;;;;19.60;87.17;100918.09;7391903;19;19922;-62
2022/10/27 10:20:59;;;;;;;;;;;;;;;19.64;86.96;100921.97;7387463;19;19923;-64
2022/10/27 10:23:28;;;;;;;;;;;;;;;19.67;86.71;100925.22;7391966;19;19918;-62
2022/10/27 10:26:10;;;;;;;;;;;;;;;19.67;86.42;100926.06;7390658;19;19919;-61
2022/10/27 10:28:43;;;;;;;;;;;;;;;19.70;85.96;100922.16;7387142;19;19942;-62
2022/10/27 10:31:24;;;;;;;;;;;;;;;19.72;86.42;100922.75;7386995;19;19934;-61
2022/10/27 10:34:10;;;;;;;;;;;;;;;19.73;86.42;100927.88;7390880;19;19922;-62
2022/10/27 10:36:49;;;;;;;;;;;;;;;19.75;86.23;100930.34;7387689;19;20347;-62
2022/10/27 10:39:24;;;;;;;;;;;;;;;19.76;86.17;100937.34;7390341;19;19952;-59
2022/10/27 10:42:19;;;;;;;;;;;;;;;19.75;85.55;100944.53;7384318;19;19921;-53
2022/10/27 10:45:07;;;;;;;;;;;;;;;19.74;85.82;100942.06;7389872;19;19998;-58
2022/10/27 10:47:36;;;;;;;;;;;;;;;19.73;85.95;100948.44;7391052;19;20035;-59
2022/10/27 10:50:03;;;;;;;;;;;;;;;19.78;86.36;100951.28;7389846;19;19915;-55
2022/10/27 10:52:36;;;;;;;;;;;;;;;19.79;85.79;100943.06;7392003;19;19937;-56
2022/10/27 10:55:28;;;;;;;;;;;;;;;19.80;86.03;100944.72;7390627;19;20436;-57
2022/10/27 10:57:57;;;;;;;;;;;;;;;19.82;86.07;100949.84;7387810;19;19921;-59
2022/10/27 11:00:25;;;;;;;;;;;;;;;19.84;85.80;100940.59;7389764;19;19919;-57
2022/10/27 11:02:59;;;;;;;;;;;;;;;19.87;85.74;100929.47;7389580;19;20312;-59
2022/10/27 11:05:30;;;;;;;;;;;;;;;19.91;85.53;100935.25;7384618;19;19947;-58
2022/10/27 11:07:58;;;;;;;;;;;;;;;19.95;85.36;100934.59;7389814;19;19983;-58
2022/10/27 11:10:30;;;;;;;;;;;;;;;19.98;84.85;100934.16;7390565;19;19934;-58
2022/10/27 11:13:03;;;;;;;;;;;;;;;19.99;84.77;100933.16;7387539;19;19918;-57
2022/10/27 11:15:34;;;;;;;;;;;;;;;20.01;84.86;100924.94;7388286;19;20269;-58
2022/10/27 11:18:09;;;;;;;;;;;;;;;20.05;84.48;100926.13;7389212;19;20333;-55
2022/10/27 11:20:37;;;;;;;;;;;;;;;20.06;84.46;100930.44;7388241;19;19965;-54
2022/10/27 11:23:12;;;;;;;;;;;;;;;20.08;84.33;100931.03;7388637;19;19935;-58
2022/10/27 11:25:40;;;;;;;;;;;;;;;20.10;84.93;100918.31;7389353;19;19922;-62
2022/10/27 11:28:26;;;;;;;;;;;;;;;20.15;84.47;100921.16;7386441;19;19990;-57
2022/10/27 11:30:52;;;;;;;;;;;;;;;20.19;84.49;100922.34;7386763;19;20328;-59
2022/10/27 11:33:34;;;;;;;;;;;;;;;20.22;84.76;100934.47;7387804;19;19915;-59
2022/10/27 11:36:11;;;;;;;;;;;;;;;20.25;84.75;100926.84;7386925;19;20507;-59
2022/10/27 11:38:40;;;;;;;;;;;;;;;20.33;84.68;100939.16;7388542;19;20416;-56
2022/10/27 11:41:32;;;;;;;;;;;;;;;20.39;84.17;100928.44;7386941;19;20410;-59
2022/10/27 11:44:01;;;;;;;;;;;;;;;20.46;83.77;100925.75;7385603;19;20286;-56
2022/10/27 11:46:43;;;;;;;;;;;;;;;20.52;83.61;100921.41;7385778;19;20245;-60
2022/10/27 11:49:21;;;;;;;;;;;;;;;20.56;83.51;100930.63;7386537;19;19934;-59
2022/10/27 11:51:55;;;;;;;;;;;;;;;20.59;83.17;100940.88;7387253;19;20591;-59
2022/10/27 11:54:22;;;;;;;;;;;;;;;20.60;82.79;100931.81;7384803;19;19918;-57
2022/10/27 11:56:54;;;;;;;;;;;;;;;20.61;82.97;100936.97;7364492;19;20823;-58
2022/10/27 11:59:38;;;;;;;;;;;;;;;20.64;82.74;100941.88;7370393;19;19914;-57
2022/10/27 12:02:27;;;;;;;;;;;;;;;20.64;82.84;100949.88;7382011;19;19957;-57
2022/10/27 12:04:59;;;;;;;;;;;;;;;20.65;81.68;100950.72;7385721;19;20404;-58
2022/10/27 12:07:40;;;;;;;;;;;;;;;20.69;81.60;100943.88;7385614;19;19919;-58
2022/10/27 12:10:15;;;;;;;;;;;;;;;20.74;81.75;100947.56;7386194;19;19935;-57
2022/10/27 12:12:44;;;;;;;;;;;;;;;20.77;81.12;100946.31;7383993;19;19919;-60
2022/10/27 12:15:17;;;;;;;;;;;;;;;20.79;80.29;100957.59;7385135;19;20019;-59
2022/10/27 12:17:46;;;;;;;;;;;;;;;20.77;80.52;100965.88;7386355;19;20256;-54
2022/10/27 12:20:16;;;;;;;;;;;;;;;20.75;80.40;100967.94;7385239;19;19919;-58
2022/10/27 12:22:59;;;;;;;;;;;;;;;20.75;80.66;100967.94;7384556;19;19922;-63
2022/10/27 12:25:35;;;;;;;;;;;;;;;20.76;80.55;100961.56;7385826;19;20436;-59
2022/10/27 12:28:05;;;;;;;;;;;;;;;20.74;80.62;100960.94;7383827;19;19929;-59
2022/10/27 12:30:36;;;;;;;;;;;;;;;20.72;80.34;100957.69;7385345;19;19914;-61
2022/10/27 12:33:27;;;;;;;;;;;;;;;20.69;80.65;100951.91;7384192;19;19951;-58
2022/10/27 12:35:57;;;;;;;;;;;;;;;20.68;81.00;100950.28;7385525;19;19922;-56
2022/10/27 12:38:24;;;;;;;;;;;;;;;20.67;81.02;100956.69;7384893;19;19923;-62
2022/10/27 12:40:51;;;;;;;;;;;;;;;20.65;81.15;100953.38;7385709;19;19943;-58
2022/10/27 12:43:30;;;;;;;;;;;;;;;20.64;81.71;100960.59;7381777;19;19937;-55
2022/10/27 12:46:18;;;;;;;;;;;;;;;20.64;81.75;100960.59;7384015;19;19923;-59
2022/10/27 12:48:54;;;;;;;;;;;;;;;20.65;81.43;100961.41;7385265;19;19926;-58
2022/10/27 12:51:34;;;;;;;;;;;;;;;20.66;81.66;100963.88;7384371;19;19946;-57